createdAt,value
2018-11-23T00:01:28.872Z,-0.90
2018-11-23T00:03:58.800Z,-0.90
2018-11-23T00:06:29.816Z,-0.90
2018-11-23T00:08:59.829Z,-1.00
2018-11-23T00:11:29.783Z,-1.00
2018-11-23T00:13:59.789Z,-0.90
2018-11-23T00:16:29.788Z,-0.60
2018-11-23T00:18:59.809Z,-0.40
2018-11-23T00:21:29.767Z,-0.30
2018-11-23T00:23:59.730Z,-0.50
2018-11-23T00:26:29.754Z,-0.70
2018-11-23T00:28:59.773Z,-0.80
2018-11-23T00:31:29.739Z,-0.90
2018-11-23T00:33:59.608Z,-0.90
2018-11-23T00:36:29.694Z,-0.90
2018-11-23T00:38:59.645Z,-0.90
2018-11-23T00:41:29.638Z,-0.90
2018-11-23T00:43:59.575Z,-1.00
2018-11-23T00:46:29.689Z,-1.00
2018-11-23T00:48:59.641Z,-0.90
2018-11-23T00:51:29.560Z,-0.90
2018-11-23T00:53:59.502Z,-0.90
2018-11-23T00:56:29.441Z,-0.80
2018-11-23T00:58:59.489Z,-0.60
2018-11-23T01:01:33.638Z,-0.40
2018-11-23T01:04:03.641Z,-0.50
2018-11-23T01:06:33.610Z,-0.80
2018-11-23T01:09:04.056Z,-0.90
2018-11-23T01:11:33.967Z,-0.90
2018-11-23T01:14:04.093Z,-0.80
2018-11-23T01:16:33.989Z,-0.70
2018-11-23T01:19:04.035Z,-0.60
2018-11-23T01:21:34.017Z,-0.50
2018-11-23T01:24:04.052Z,-0.30
2018-11-23T01:26:33.997Z,-0.10
2018-11-23T01:29:04.048Z,-0.10
2018-11-23T01:31:34.856Z,-0.10
2018-11-23T01:34:05.065Z,-0.10
2018-11-23T01:36:35.005Z,-0.10
2018-11-23T01:39:07.513Z,-0.10
2018-11-23T01:41:37.482Z,-0.20
2018-11-23T01:44:07.800Z,-0.20
2018-11-23T01:46:38.703Z,-0.20
2018-11-23T01:49:08.700Z,-0.20
2018-11-23T01:51:38.645Z,-0.20
2018-11-23T01:54:08.625Z,-0.20
2018-11-23T01:56:38.629Z,-0.30
2018-11-23T01:59:08.589Z,-0.30
2018-11-23T02:01:38.598Z,-0.30
2018-11-23T02:04:08.547Z,-0.30
2018-11-23T02:06:38.447Z,-0.30
2018-11-23T02:09:08.806Z,-0.30
2018-11-23T02:11:38.852Z,-0.20
2018-11-23T02:14:08.861Z,-0.30
2018-11-23T02:16:38.881Z,-0.40
2018-11-23T02:19:08.871Z,-0.40
2018-11-23T02:21:38.766Z,-0.50
2018-11-23T02:24:08.666Z,-0.60
2018-11-23T02:26:38.684Z,-0.70
2018-11-23T02:29:08.745Z,-0.80
2018-11-23T02:31:38.980Z,-0.90
2018-11-23T02:34:09.078Z,-1.10
2018-11-23T02:36:38.961Z,-1.10
2018-11-23T02:39:09.237Z,-1.20
2018-11-23T02:41:39.179Z,-1.20
2018-11-23T02:44:09.130Z,-1.10
2018-11-23T02:46:39.229Z,-1.10
2018-11-23T02:49:09.253Z,-1.10
2018-11-23T02:51:39.238Z,-1.10
2018-11-23T02:54:09.228Z,-1.00
2018-11-23T02:56:46.835Z,-1.00
2018-11-23T02:59:16.737Z,-1.00
2018-11-23T03:01:46.758Z,-1.00
2018-11-23T03:04:16.648Z,-1.00
2018-11-23T03:06:46.637Z,-1.00
2018-11-23T03:09:16.571Z,-1.00
2018-11-23T03:11:46.534Z,-1.00
2018-11-23T03:14:16.568Z,-1.10
2018-11-23T03:16:46.554Z,-1.10
2018-11-23T03:19:16.549Z,-1.00
2018-11-23T03:21:46.518Z,-0.90
2018-11-23T03:24:16.515Z,-0.90
2018-11-23T03:26:46.549Z,-0.80
2018-11-23T03:29:16.543Z,-0.70
2018-11-23T03:31:46.475Z,-0.50
2018-11-23T03:34:16.381Z,-0.40
2018-11-23T03:36:46.805Z,-0.30
2018-11-23T03:39:16.750Z,-0.20
2018-11-23T03:41:46.712Z,-0.20
2018-11-23T03:44:16.665Z,-0.20
2018-11-23T03:46:46.670Z,-0.20
2018-11-23T03:49:16.645Z,-0.10
2018-11-23T03:51:46.644Z,-0.10
2018-11-23T03:54:16.584Z,-0.10
2018-11-23T03:56:46.570Z,-0.10
2018-11-23T03:59:16.540Z,0.00
2018-11-23T04:01:46.609Z,-0.10
2018-11-23T04:04:16.573Z,-0.10
2018-11-23T04:06:46.654Z,-0.10
2018-11-23T04:09:16.642Z,-0.10
2018-11-23T04:11:46.709Z,-0.10
2018-11-23T04:14:16.648Z,-0.10
2018-11-23T04:16:46.597Z,-0.20
2018-11-23T04:19:16.488Z,-0.20
2018-11-23T04:21:46.555Z,-0.30
2018-11-23T04:24:16.504Z,-0.30
2018-11-23T04:26:46.623Z,-0.40
2018-11-23T04:29:16.612Z,-0.50
2018-11-23T04:31:46.545Z,-0.50
2018-11-23T04:34:16.593Z,-0.50
2018-11-23T04:36:46.554Z,-0.60
2018-11-23T04:39:16.541Z,-0.70
2018-11-23T04:41:46.693Z,-0.70
2018-11-23T04:44:16.394Z,-0.80
2018-11-23T04:46:46.340Z,-0.70
2018-11-23T04:49:16.368Z,-0.80
2018-11-23T04:51:46.373Z,-0.80
2018-11-23T04:54:16.290Z,-0.90
2018-11-23T04:56:46.302Z,-0.90
2018-11-23T04:59:16.260Z,-0.90
2018-11-23T05:01:46.286Z,-1.00
2018-11-23T05:04:16.380Z,-1.00
2018-11-23T05:06:46.341Z,-1.00
2018-11-23T05:09:16.269Z,-1.10
2018-11-23T05:11:46.924Z,-1.00
2018-11-23T05:14:16.937Z,-1.00
2018-11-23T05:16:46.925Z,-1.00
2018-11-23T05:19:16.845Z,-0.90
2018-11-23T05:21:47.139Z,-0.90
2018-11-23T05:24:17.106Z,-0.90
2018-11-23T05:26:47.265Z,-0.90
2018-11-23T05:29:18.261Z,-1.00
2018-11-23T05:31:48.241Z,-1.10
2018-11-23T05:34:18.143Z,-1.10
2018-11-23T05:36:49.255Z,-1.10
2018-11-23T05:39:19.292Z,-1.10
2018-11-23T05:41:49.241Z,-1.00
2018-11-23T05:44:19.342Z,-0.90
2018-11-23T05:46:49.307Z,-0.90
2018-11-23T05:49:19.319Z,-0.80
2018-11-23T05:51:49.325Z,-0.70
2018-11-23T05:54:19.352Z,-0.70
2018-11-23T05:56:49.339Z,-0.80
2018-11-23T05:59:19.256Z,-0.80
2018-11-23T06:01:49.277Z,-0.80
2018-11-23T06:04:19.395Z,-0.80
2018-11-23T06:06:49.453Z,-0.80
2018-11-23T06:09:19.517Z,-0.80
2018-11-23T06:11:49.670Z,-0.80
2018-11-23T06:14:19.643Z,-0.60
2018-11-23T06:16:50.688Z,-0.60
2018-11-23T06:19:20.648Z,-0.60
2018-11-23T06:21:50.691Z,-0.70
2018-11-23T06:24:20.675Z,-0.80
2018-11-23T06:26:50.633Z,-0.80
2018-11-23T06:29:20.601Z,-0.80
2018-11-23T06:31:50.789Z,-0.80
2018-11-23T06:34:20.775Z,-0.60
2018-11-23T06:36:50.804Z,-0.50
2018-11-23T06:39:20.672Z,-0.30
2018-11-23T06:41:50.598Z,-0.20
2018-11-23T06:44:25.688Z,-0.10
2018-11-23T06:46:55.786Z,-0.20
2018-11-23T06:49:25.754Z,-0.20
2018-11-23T06:51:55.757Z,-0.10
2018-11-23T06:54:25.747Z,-0.10
2018-11-23T06:56:55.765Z,-0.10
2018-11-23T06:59:25.855Z,-0.10
2018-11-23T07:01:55.890Z,-0.10
2018-11-23T07:04:25.862Z,-0.10
2018-11-23T07:06:56.006Z,-0.10
2018-11-23T07:09:26.081Z,0.00
2018-11-23T07:11:56.017Z,0.00
2018-11-23T07:14:26.009Z,0.00
2018-11-23T07:16:55.998Z,0.10
2018-11-23T07:19:26.362Z,0.10
2018-11-23T07:21:56.360Z,0.10
2018-11-23T07:24:26.636Z,0.10
2018-11-23T07:26:56.702Z,0.10
2018-11-23T07:29:26.734Z,0.10
2018-11-23T07:31:56.712Z,0.20
2018-11-23T07:34:26.688Z,0.20
2018-11-23T07:36:56.747Z,0.20
2018-11-23T07:39:37.833Z,0.30
2018-11-23T07:42:24.761Z,0.40
2018-11-23T07:44:54.875Z,0.40
2018-11-23T07:47:24.838Z,0.40
2018-11-23T07:49:54.902Z,0.40
2018-11-23T07:52:25.017Z,0.40
2018-11-23T07:54:55.062Z,0.50
2018-11-23T07:57:25.072Z,0.40
2018-11-23T07:59:55.033Z,0.50
2018-11-23T08:02:25.057Z,0.60
2018-11-23T08:04:55.000Z,0.60
2018-11-23T08:07:25.038Z,0.40
2018-11-23T08:09:55.010Z,0.30
2018-11-23T08:12:24.992Z,0.20
2018-11-23T08:14:54.976Z,0.30
2018-11-23T08:17:24.949Z,0.30
2018-11-23T08:19:54.913Z,0.40
2018-11-23T08:22:24.969Z,0.50
2018-11-23T08:24:54.967Z,0.60
2018-11-23T08:27:24.957Z,0.70
2018-11-23T08:29:54.928Z,0.80
2018-11-23T08:32:24.963Z,0.90
2018-11-23T08:34:54.967Z,1.00
2018-11-23T08:37:25.125Z,1.10
2018-11-23T08:39:55.147Z,1.20
2018-11-23T08:42:25.150Z,1.20
2018-11-23T08:44:55.371Z,1.30
2018-11-23T08:47:25.445Z,1.30
2018-11-23T08:49:55.470Z,1.30
2018-11-23T08:52:25.453Z,1.50
2018-11-23T08:54:55.565Z,1.60
2018-11-23T08:57:25.593Z,1.70
2018-11-23T08:59:55.715Z,1.80
2018-11-23T09:02:25.708Z,1.90
2018-11-23T09:04:55.735Z,2.10
2018-11-23T09:07:25.711Z,2.20
2018-11-23T09:09:55.731Z,2.40
2018-11-23T09:12:25.748Z,2.70
2018-11-23T09:14:55.816Z,3.00
2018-11-23T09:17:25.747Z,3.10
2018-11-23T09:19:55.772Z,3.00
2018-11-23T09:22:25.791Z,2.90
2018-11-23T09:24:55.814Z,3.00
2018-11-23T09:27:25.799Z,3.10
2018-11-23T09:29:55.852Z,3.20
2018-11-23T09:32:25.859Z,3.20
2018-11-23T09:34:55.883Z,3.30
2018-11-23T09:37:25.965Z,3.60
2018-11-23T09:39:55.891Z,3.70
2018-11-23T09:42:25.882Z,3.80
2018-11-23T09:44:55.861Z,3.80
2018-11-23T09:47:25.854Z,3.80
2018-11-23T09:49:55.882Z,3.90
2018-11-23T09:52:25.917Z,4.10
2018-11-23T09:54:55.931Z,4.10
2018-11-23T09:57:25.920Z,4.10
2018-11-23T09:59:55.963Z,4.20
2018-11-23T10:02:25.972Z,4.30
2018-11-23T10:04:55.929Z,4.30
2018-11-23T10:07:25.908Z,4.30
2018-11-23T10:09:55.880Z,4.30
2018-11-23T10:12:25.942Z,4.40
2018-11-23T10:14:56.021Z,4.40
2018-11-23T10:17:26.023Z,4.40
2018-11-23T10:19:58.146Z,4.40
2018-11-23T10:22:26.128Z,4.40
2018-11-23T10:24:56.138Z,4.40
2018-11-23T10:27:26.107Z,4.60
2018-11-23T10:29:56.067Z,4.80
2018-11-23T10:32:26.065Z,4.80
2018-11-23T10:34:56.064Z,4.90
2018-11-23T10:37:26.128Z,5.00
2018-11-23T10:39:56.079Z,5.10
2018-11-23T10:42:25.999Z,5.20
2018-11-23T10:44:56.017Z,5.30
2018-11-23T10:47:25.942Z,5.40
2018-11-23T10:49:55.862Z,5.40
2018-11-23T10:52:25.930Z,5.50
2018-11-23T10:54:55.919Z,5.40
2018-11-23T10:57:25.899Z,5.50
2018-11-23T10:59:55.838Z,5.50
2018-11-23T11:02:31.066Z,5.60
2018-11-23T11:05:06.307Z,5.50
2018-11-23T11:07:36.243Z,5.50
2018-11-23T11:10:06.631Z,5.50
2018-11-23T11:12:36.733Z,5.50
2018-11-23T11:15:07.516Z,5.50
2018-11-23T11:17:37.598Z,5.60
2018-11-23T11:20:08.122Z,5.60
2018-11-23T11:22:38.545Z,5.50
2018-11-23T11:25:09.634Z,5.60
2018-11-23T11:27:40.199Z,5.50
2018-11-23T11:30:13.803Z,5.60
2018-11-23T11:32:44.151Z,5.60
2018-11-23T11:35:14.325Z,5.70
2018-11-23T11:37:44.621Z,5.80
2018-11-23T11:40:16.616Z,5.90
2018-11-23T11:42:46.810Z,5.70
2018-11-23T11:45:18.805Z,5.70
2018-11-23T11:47:48.967Z,5.70
2018-11-23T11:50:18.976Z,5.60
2018-11-23T11:52:49.354Z,5.70
2018-11-23T11:55:20.489Z,5.70
2018-11-23T11:57:50.580Z,5.70
2018-11-23T12:00:22.802Z,5.80
2018-11-23T12:02:52.980Z,5.80
2018-11-23T12:05:22.950Z,5.90
2018-11-23T12:07:52.966Z,5.80
2018-11-23T12:10:24.657Z,5.80
2018-11-23T12:12:54.762Z,5.90
2018-11-23T12:15:24.768Z,5.90
2018-11-23T12:17:54.767Z,6.00
2018-11-23T12:20:25.472Z,6.00
2018-11-23T12:22:55.482Z,5.90
2018-11-23T12:25:25.527Z,5.90
2018-11-23T12:27:55.481Z,5.90
2018-11-23T12:30:29.341Z,5.90
2018-11-23T12:32:59.337Z,6.00
2018-11-23T12:35:29.312Z,6.10
2018-11-23T12:37:59.261Z,6.00
2018-11-23T12:40:29.359Z,6.10
2018-11-23T12:42:59.234Z,6.10
2018-11-23T12:45:29.315Z,6.10
2018-11-23T12:47:59.278Z,6.10
2018-11-23T12:50:29.223Z,6.10
2018-11-23T12:53:06.149Z,6.20
2018-11-23T12:55:29.813Z,6.20
2018-11-23T12:57:59.849Z,6.20
2018-11-23T13:00:30.445Z,6.20
2018-11-23T13:03:03.943Z,6.10
2018-11-23T13:05:35.029Z,6.20
2018-11-23T13:08:06.310Z,6.10
2018-11-23T13:10:36.395Z,6.10
2018-11-23T13:13:06.334Z,6.20
2018-11-23T13:15:36.407Z,6.20
2018-11-23T13:18:06.463Z,6.20
2018-11-23T13:20:36.491Z,6.30
2018-11-23T13:23:06.469Z,6.30
2018-11-23T13:25:36.493Z,6.30
2018-11-23T13:28:06.759Z,6.30
2018-11-23T13:30:37.289Z,6.30
2018-11-23T13:33:07.253Z,6.30
2018-11-23T13:35:37.234Z,6.30
2018-11-23T13:38:07.259Z,6.30
2018-11-23T13:40:37.227Z,6.30
2018-11-23T13:43:07.251Z,6.30
2018-11-23T13:45:37.265Z,6.30
2018-11-23T13:48:07.207Z,6.30
2018-11-23T13:50:37.114Z,6.20
2018-11-23T13:53:07.240Z,6.10
2018-11-23T13:55:37.324Z,6.00
2018-11-23T13:58:07.388Z,6.00
2018-11-23T14:00:37.405Z,5.90
2018-11-23T14:03:07.343Z,5.90
2018-11-23T14:05:37.380Z,5.80
2018-11-23T14:08:08.586Z,5.70
2018-11-23T14:10:38.909Z,5.50
2018-11-23T14:13:11.608Z,5.50
2018-11-23T14:15:38.921Z,5.40
2018-11-23T14:18:08.960Z,5.30
2018-11-23T14:20:38.932Z,5.30
2018-11-23T14:23:08.856Z,5.30
2018-11-23T14:25:40.531Z,5.20
2018-11-23T14:28:11.245Z,5.20
2018-11-23T14:30:41.288Z,5.20
2018-11-23T14:33:11.306Z,5.10
2018-11-23T14:35:41.306Z,5.00
2018-11-23T14:38:11.302Z,5.00
2018-11-23T14:40:41.275Z,4.90
2018-11-23T14:43:11.235Z,4.90
2018-11-23T14:45:41.154Z,4.80
2018-11-23T14:48:11.126Z,4.80
2018-11-23T14:50:46.365Z,4.70
2018-11-23T14:53:16.397Z,4.60
2018-11-23T14:55:46.357Z,4.60
2018-11-23T14:58:16.318Z,4.60
2018-11-23T15:00:46.408Z,4.50
2018-11-23T15:03:16.385Z,4.50
2018-11-23T15:05:46.570Z,4.40
2018-11-23T15:08:16.467Z,4.40
2018-11-23T15:10:46.467Z,4.40
2018-11-23T15:13:16.432Z,4.30
2018-11-23T15:15:46.500Z,4.20
2018-11-23T15:18:16.412Z,4.20
2018-11-23T15:20:46.713Z,4.10
2018-11-23T15:23:18.318Z,4.10
2018-11-23T15:25:48.401Z,4.20
2018-11-23T15:28:18.425Z,4.10
2018-11-23T15:30:48.416Z,4.00
2018-11-23T15:33:19.026Z,3.90
2018-11-23T15:35:49.037Z,3.90
2018-11-23T15:38:20.758Z,3.80
2018-11-23T15:40:50.692Z,3.70
2018-11-23T15:43:21.380Z,3.70
2018-11-23T15:45:51.274Z,3.60
2018-11-23T15:48:21.414Z,3.60
2018-11-23T15:50:52.526Z,3.50
2018-11-23T15:53:22.769Z,3.50
2018-11-23T15:55:52.865Z,3.40
2018-11-23T15:58:22.821Z,3.40
2018-11-23T16:00:52.915Z,3.40
2018-11-23T16:03:22.901Z,3.40
2018-11-23T16:05:52.874Z,3.40
2018-11-23T16:08:23.017Z,3.40
2018-11-23T16:10:53.053Z,3.40
2018-11-23T16:13:23.449Z,3.40
2018-11-23T16:15:53.793Z,3.40
2018-11-23T16:18:23.863Z,3.30
2018-11-23T16:20:53.908Z,3.30
2018-11-23T16:23:23.911Z,3.30
2018-11-23T16:25:53.941Z,3.20
2018-11-23T16:28:23.888Z,3.10
2018-11-23T16:30:53.880Z,3.00
2018-11-23T16:33:24.906Z,3.00
2018-11-23T16:35:54.915Z,3.00
2018-11-23T16:38:25.306Z,2.90
2018-11-23T16:40:56.624Z,2.80
2018-11-23T16:43:26.539Z,2.80
2018-11-23T16:45:56.495Z,2.70
2018-11-23T16:48:26.496Z,2.60
2018-11-23T16:50:57.466Z,2.60
2018-11-23T16:53:27.579Z,2.50
2018-11-23T16:55:57.733Z,2.50
2018-11-23T16:58:27.648Z,2.50
2018-11-23T17:00:57.631Z,2.50
2018-11-23T17:03:27.644Z,2.50
2018-11-23T17:05:57.690Z,2.50
2018-11-23T17:08:27.715Z,2.50
2018-11-23T17:10:57.658Z,2.40
2018-11-23T17:13:27.715Z,2.40
2018-11-23T17:15:57.749Z,2.40
2018-11-23T17:18:27.750Z,2.40
2018-11-23T17:20:59.276Z,2.50
2018-11-23T17:23:27.727Z,2.40
2018-11-23T17:25:57.610Z,2.40
2018-11-23T17:28:27.552Z,2.40
2018-11-23T17:30:57.499Z,2.40
2018-11-23T17:33:27.537Z,2.40
2018-11-23T17:35:57.606Z,2.30
2018-11-23T17:38:28.318Z,2.40
2018-11-23T17:40:58.276Z,2.40
2018-11-23T17:43:28.772Z,2.40
2018-11-23T17:45:58.825Z,2.40
2018-11-23T17:48:28.813Z,2.40
2018-11-23T17:50:59.510Z,2.30
2018-11-23T17:53:29.559Z,2.30
2018-11-23T17:55:59.639Z,2.30
2018-11-23T17:58:29.558Z,2.30
2018-11-23T18:00:59.500Z,2.30
2018-11-23T18:03:29.391Z,2.30
2018-11-23T18:05:59.448Z,2.30
2018-11-23T18:08:29.314Z,2.30
2018-11-23T18:10:59.458Z,2.30
2018-11-23T18:13:29.511Z,2.30
2018-11-23T18:15:59.499Z,2.20
2018-11-23T18:18:29.474Z,2.20
2018-11-23T18:21:01.480Z,2.20
2018-11-23T18:23:31.497Z,2.20
2018-11-23T18:26:01.677Z,2.20
2018-11-23T18:28:31.809Z,2.20
2018-11-23T18:31:01.813Z,2.20
2018-11-23T18:33:32.613Z,2.10
2018-11-23T18:36:03.701Z,2.20
2018-11-23T18:38:34.329Z,2.10
2018-11-23T18:41:04.514Z,2.20
2018-11-23T18:43:35.970Z,2.20
2018-11-23T18:46:07.231Z,2.20
2018-11-23T18:48:37.597Z,2.20
2018-11-23T18:51:09.378Z,2.20
2018-11-23T18:53:40.127Z,2.30
2018-11-23T18:56:11.091Z,2.30
2018-11-23T18:58:41.946Z,2.30
2018-11-23T19:01:14.217Z,2.40
2018-11-23T19:03:44.231Z,2.40
2018-11-23T19:06:14.597Z,2.40
2018-11-23T19:08:44.697Z,2.40
2018-11-23T19:11:14.757Z,2.40
2018-11-23T19:13:44.953Z,2.40
2018-11-23T19:16:15.053Z,2.40
2018-11-23T19:18:46.231Z,2.40
2018-11-23T19:21:16.366Z,2.40
2018-11-23T19:23:46.422Z,2.40
2018-11-23T19:26:16.534Z,2.40
2018-11-23T19:28:46.646Z,2.40
2018-11-23T19:31:16.652Z,2.40
2018-11-23T19:33:46.917Z,2.40
2018-11-23T19:36:17.198Z,2.40
2018-11-23T19:38:47.560Z,2.40
2018-11-23T19:41:20.734Z,2.40
2018-11-23T19:43:52.741Z,2.30
2018-11-23T19:46:22.835Z,2.30
2018-11-23T19:48:52.939Z,2.30
2018-11-23T19:51:22.953Z,2.30
2018-11-23T19:53:53.063Z,2.30
2018-11-23T19:56:23.189Z,2.30
2018-11-23T19:58:53.274Z,2.30
2018-11-23T20:01:23.571Z,2.30
2018-11-23T20:03:53.624Z,2.40
2018-11-23T20:06:23.794Z,2.40
2018-11-23T20:08:53.881Z,2.50
2018-11-23T20:11:23.949Z,2.50
2018-11-23T20:13:53.924Z,2.50
2018-11-23T20:16:24.042Z,2.50
2018-11-23T20:18:54.037Z,2.50
2018-11-23T20:21:24.050Z,2.50
2018-11-23T20:23:53.983Z,2.50
2018-11-23T20:26:25.050Z,2.50
2018-11-23T20:28:55.086Z,2.50
2018-11-23T20:31:25.105Z,2.50
2018-11-23T20:33:55.137Z,2.50
2018-11-23T20:36:25.198Z,2.50
2018-11-23T20:38:55.303Z,2.50
2018-11-23T20:41:25.364Z,2.50
2018-11-23T20:43:55.410Z,2.50
2018-11-23T20:46:25.419Z,2.50
2018-11-23T20:48:55.531Z,2.50
2018-11-23T20:51:25.650Z,2.50
2018-11-23T20:53:55.936Z,2.40
2018-11-23T20:56:26.251Z,2.50
2018-11-23T20:58:56.724Z,2.50
2018-11-23T21:01:27.099Z,2.50
2018-11-23T21:03:57.493Z,2.50
2018-11-23T21:06:27.492Z,2.50
2018-11-23T21:08:57.540Z,2.50
2018-11-23T21:11:33.687Z,2.40
2018-11-23T21:14:07.394Z,2.40
2018-11-23T21:16:39.429Z,2.50
2018-11-23T21:19:09.542Z,2.40
2018-11-23T21:21:40.613Z,2.50
2018-11-23T21:24:10.689Z,2.50
2018-11-23T21:26:42.486Z,2.40
2018-11-23T21:29:12.750Z,2.40
2018-11-23T21:31:43.377Z,2.40
2018-11-23T21:34:13.551Z,2.40
2018-11-23T21:36:43.671Z,2.50
2018-11-23T21:39:13.995Z,2.40
2018-11-23T21:41:44.146Z,2.40
2018-11-23T21:44:15.241Z,2.40
2018-11-23T21:46:45.285Z,2.40
2018-11-23T21:49:15.408Z,2.40
2018-11-23T21:51:45.469Z,2.40
2018-11-23T21:54:15.611Z,2.40
2018-11-23T21:56:45.629Z,2.40
2018-11-23T21:59:15.833Z,2.40
2018-11-23T22:01:46.022Z,2.30
2018-11-23T22:04:19.655Z,2.30
2018-11-23T22:06:50.303Z,2.30
2018-11-23T22:09:21.604Z,2.30
2018-11-23T22:11:52.628Z,2.30
2018-11-23T22:14:22.935Z,2.30
2018-11-23T22:16:53.932Z,2.30
2018-11-23T22:19:33.916Z,2.30
2018-11-23T22:22:04.196Z,2.30
2018-11-23T22:24:37.147Z,2.30
2018-11-23T22:27:07.290Z,2.30
2018-11-23T22:29:37.280Z,2.30
2018-11-23T22:32:07.369Z,2.30
2018-11-23T22:34:37.317Z,2.30
2018-11-23T22:37:07.364Z,2.20
2018-11-23T22:39:37.340Z,2.20
2018-11-23T22:42:07.284Z,2.10
2018-11-23T22:44:37.317Z,2.10
2018-11-23T22:47:07.246Z,2.10
2018-11-23T22:49:37.173Z,2.10
2018-11-23T22:52:07.914Z,2.10
2018-11-23T22:54:38.343Z,2.20
2018-11-23T22:57:11.875Z,2.10
2018-11-23T22:59:38.372Z,2.20
2018-11-23T23:02:08.395Z,2.10
2018-11-23T23:04:38.501Z,2.10
2018-11-23T23:07:11.277Z,2.10
2018-11-23T23:09:41.239Z,2.10
2018-11-23T23:12:11.199Z,2.10
2018-11-23T23:14:41.183Z,2.10
2018-11-23T23:17:11.133Z,2.10
2018-11-23T23:19:41.008Z,2.20
2018-11-23T23:22:10.943Z,2.20
2018-11-23T23:24:41.277Z,2.20
2018-11-23T23:27:11.278Z,2.20
2018-11-23T23:29:41.295Z,2.20
2018-11-23T23:32:11.338Z,2.20
2018-11-23T23:34:41.455Z,2.20
2018-11-23T23:37:11.844Z,2.20
2018-11-23T23:39:41.981Z,2.20
2018-11-23T23:42:11.895Z,2.20
2018-11-23T23:44:41.886Z,2.20
2018-11-23T23:47:12.492Z,2.20
2018-11-23T23:49:43.414Z,2.20
2018-11-23T23:52:13.304Z,2.30
2018-11-23T23:54:43.280Z,2.40
2018-11-23T23:57:13.165Z,2.50
2018-11-23T23:59:43.658Z,2.50
